createdAt,value
2023-07-14T00:00:21.904Z,100370.66
2023-07-14T00:03:25.148Z,100367.28
2023-07-14T00:06:28.126Z,100372.34
2023-07-14T00:09:33.281Z,100374.34
2023-07-14T00:12:35.989Z,100376.66
2023-07-14T00:15:40.854Z,100387.94
2023-07-14T00:18:43.676Z,100382.22
2023-07-14T00:21:47.982Z,100384.19
2023-07-14T00:24:50.792Z,100380.91
2023-07-14T00:27:56.145Z,100378.31
2023-07-14T00:30:59.228Z,100379.03
2023-07-14T00:34:02.903Z,100379.09
2023-07-14T00:37:05.880Z,100383.94
2023-07-14T00:40:17.447Z,100390.97
2023-07-14T00:43:31.213Z,100387.00
2023-07-14T00:46:36.957Z,100386.50
2023-07-14T00:49:42.940Z,100383.84
2023-07-14T00:52:50.398Z,100378.47
2023-07-14T00:56:10.839Z,100377.50
2023-07-14T00:59:18.584Z,100379.72
2023-07-14T01:02:26.572Z,100390.50
2023-07-14T01:05:32.608Z,100391.19
2023-07-14T01:08:42.827Z,100399.19
2023-07-14T01:11:56.005Z,100398.38
2023-07-14T01:15:03.254Z,100398.25
2023-07-14T01:18:11.198Z,100408.56
2023-07-14T01:21:23.157Z,100412.88
2023-07-14T01:24:43.153Z,100409.44
2023-07-14T01:27:50.056Z,100414.22
2023-07-14T01:30:57.186Z,100422.16
2023-07-14T01:34:04.121Z,100422.50
2023-07-14T01:37:10.563Z,100421.66
2023-07-14T01:40:19.810Z,100423.87
2023-07-14T01:43:26.249Z,100424.19
2023-07-14T01:46:31.689Z,100426.50
2023-07-14T01:49:43.645Z,100430.72
2023-07-14T01:52:52.959Z,100426.63
2023-07-14T01:56:00.369Z,100430.00
2023-07-14T01:59:27.373Z,100425.50
2023-07-14T02:02:37.546Z,100426.41
2023-07-14T02:05:42.019Z,100429.91
2023-07-14T02:08:48.966Z,100425.44
2023-07-14T02:11:57.926Z,100435.22
2023-07-14T02:15:11.835Z,100434.03
2023-07-14T02:18:21.218Z,100426.19
2023-07-14T02:21:31.896Z,100428.09
2023-07-14T02:24:37.696Z,100432.78
2023-07-14T02:27:44.706Z,100435.09
2023-07-14T02:30:55.401Z,100436.06
2023-07-14T02:33:59.221Z,100432.50
2023-07-14T02:37:29.643Z,100441.75
2023-07-14T02:41:12.046Z,100444.34
2023-07-14T02:44:19.227Z,100444.91
2023-07-14T02:47:26.794Z,100452.22
2023-07-14T02:50:31.368Z,100460.44
2023-07-14T02:53:35.497Z,100470.00
2023-07-14T02:56:44.246Z,100479.94
2023-07-14T02:59:48.981Z,100483.12
2023-07-14T03:02:56.118Z,100478.78
2023-07-14T03:06:00.374Z,100483.00
2023-07-14T03:09:04.902Z,100481.63
2023-07-14T03:12:11.017Z,100486.47
2023-07-14T03:15:17.521Z,100482.22
2023-07-14T03:18:23.296Z,100486.91
2023-07-14T03:21:29.473Z,100485.84
2023-07-14T03:24:33.436Z,100484.06
2023-07-14T03:27:38.180Z,100479.28
2023-07-14T03:30:44.562Z,100488.78
2023-07-14T03:33:49.562Z,100489.75
2023-07-14T03:36:53.547Z,100493.09
2023-07-14T03:39:58.436Z,100490.03
2023-07-14T03:43:04.863Z,100498.94
2023-07-14T03:46:09.811Z,100505.16
2023-07-14T03:49:14.520Z,100497.22
2023-07-14T03:52:25.264Z,100501.56
2023-07-14T03:55:33.125Z,100503.06
2023-07-14T03:58:40.411Z,100506.25
2023-07-14T04:01:45.382Z,100510.09
2023-07-14T04:04:53.197Z,100512.41
2023-07-14T04:07:57.551Z,100517.81
2023-07-14T04:11:02.568Z,100515.88
2023-07-14T04:14:08.754Z,100511.31
2023-07-14T04:17:14.563Z,100519.47
2023-07-14T04:20:19.292Z,100527.88
2023-07-14T04:23:24.959Z,100523.41
2023-07-14T04:26:30.731Z,100532.22
2023-07-14T04:29:35.530Z,100525.66
2023-07-14T04:32:39.874Z,100535.03
2023-07-14T04:35:44.711Z,100536.44
2023-07-14T04:39:09.924Z,100545.13
2023-07-14T04:42:14.688Z,100546.75
2023-07-14T04:45:19.620Z,100543.09
2023-07-14T04:48:24.567Z,100544.88
2023-07-14T04:51:29.058Z,100557.59
2023-07-14T04:54:33.702Z,100554.31
2023-07-14T04:57:37.517Z,100557.06
2023-07-14T05:00:44.605Z,100568.09
2023-07-14T05:03:48.504Z,100571.09
2023-07-14T05:06:52.771Z,100572.16
2023-07-14T05:09:57.743Z,100577.56
2023-07-14T05:13:02.216Z,100573.47
2023-07-14T05:16:06.154Z,100582.56
2023-07-14T05:19:17.616Z,100595.63
2023-07-14T05:22:22.475Z,100597.84
2023-07-14T05:25:27.103Z,100596.19
2023-07-14T05:28:31.509Z,100598.44
2023-07-14T05:31:37.441Z,100594.69
2023-07-14T05:34:46.861Z,100607.38
2023-07-14T05:37:52.792Z,100605.78
2023-07-14T05:40:58.782Z,100596.53
2023-07-14T05:44:05.762Z,100598.25
2023-07-14T05:47:11.001Z,100595.50
2023-07-14T05:50:16.434Z,100601.09
2023-07-14T05:53:21.200Z,100602.75
2023-07-14T05:56:25.885Z,100597.00
2023-07-14T05:59:30.032Z,100596.09
2023-07-14T06:02:34.498Z,100601.12
2023-07-14T06:05:38.640Z,100607.59
2023-07-14T06:08:43.650Z,100597.72
2023-07-14T06:11:48.110Z,100606.19
2023-07-14T06:14:52.224Z,100608.59
2023-07-14T06:17:56.387Z,100608.25
2023-07-14T06:21:00.515Z,100615.44
2023-07-14T06:24:04.487Z,100614.16
2023-07-14T06:27:11.436Z,100617.59
2023-07-14T06:30:15.332Z,100615.19
2023-07-14T06:33:19.320Z,100614.03
2023-07-14T06:36:23.427Z,100621.13
2023-07-14T06:39:27.031Z,100615.16
2023-07-14T06:42:30.860Z,100623.53
2023-07-14T06:45:36.137Z,100627.88
2023-07-14T06:48:40.867Z,100631.06
2023-07-14T06:51:45.721Z,100631.28
2023-07-14T06:54:50.605Z,100636.22
2023-07-14T06:57:54.157Z,100637.25
2023-07-14T07:00:58.442Z,100630.44
2023-07-14T07:04:02.875Z,100623.09
2023-07-14T07:07:09.968Z,100625.47
2023-07-14T07:10:13.453Z,100623.56
2023-07-14T07:13:17.350Z,100628.09
2023-07-14T07:16:20.710Z,100629.63
2023-07-14T07:19:24.815Z,100630.88
2023-07-14T07:22:28.332Z,100633.22
2023-07-14T07:25:32.018Z,100641.16
2023-07-14T07:28:35.741Z,100633.25
2023-07-14T07:31:40.536Z,100640.91
2023-07-14T07:34:43.797Z,100645.16
2023-07-14T07:37:47.454Z,100638.22
2023-07-14T07:40:51.476Z,100644.16
2023-07-14T07:43:56.281Z,100641.03
2023-07-14T07:47:00.322Z,100641.00
2023-07-14T07:50:04.924Z,100647.44
2023-07-14T07:53:08.307Z,100645.03
2023-07-14T07:56:13.476Z,100646.72
2023-07-14T07:59:17.182Z,100644.72
2023-07-14T08:02:21.174Z,100635.84
2023-07-14T08:05:25.754Z,100651.72
2023-07-14T08:08:30.266Z,100629.34
2023-07-14T08:11:35.311Z,100630.63
2023-07-14T08:14:52.194Z,100643.22
2023-07-14T08:17:56.972Z,100637.06
2023-07-14T08:21:00.832Z,100634.50
2023-07-14T08:24:06.116Z,100643.50
2023-07-14T08:27:10.452Z,100634.97
2023-07-14T08:30:15.041Z,100647.13
2023-07-14T08:33:19.506Z,100638.47
2023-07-14T08:36:23.886Z,100632.59
2023-07-14T08:39:28.228Z,100640.41
2023-07-14T08:42:40.509Z,100637.81
2023-07-14T08:46:01.117Z,100638.59
2023-07-14T08:49:22.307Z,100631.50
2023-07-14T08:52:28.857Z,100622.75
2023-07-14T08:55:40.928Z,100625.03
2023-07-14T08:58:47.002Z,100627.47
2023-07-14T09:02:03.549Z,100625.22
2023-07-14T09:05:28.151Z,100627.69
2023-07-14T09:08:36.189Z,100642.06
2023-07-14T09:12:10.012Z,100635.41
2023-07-14T09:15:23.814Z,100632.41
2023-07-14T09:19:02.743Z,100630.56
2023-07-14T09:22:19.238Z,100639.88
2023-07-14T09:25:51.528Z,100638.97
2023-07-14T09:28:56.556Z,100641.72
2023-07-14T09:32:20.031Z,100638.97
2023-07-14T09:35:26.170Z,100641.75
2023-07-14T09:38:44.926Z,100638.69
2023-07-14T09:41:51.845Z,100632.12
2023-07-14T09:45:02.427Z,100619.91
2023-07-14T09:48:21.676Z,100619.78
2023-07-14T09:51:24.964Z,100617.88
2023-07-14T09:54:28.106Z,100625.41
2023-07-14T09:57:40.036Z,100626.28
2023-07-14T10:00:44.691Z,100621.47
2023-07-14T10:03:56.113Z,100621.78
2023-07-14T10:07:28.391Z,100615.28
2023-07-14T10:10:35.211Z,100617.56
2023-07-14T10:13:38.305Z,100615.84
2023-07-14T10:16:46.477Z,100593.00
2023-07-14T10:19:51.969Z,100602.03
2023-07-14T10:22:59.000Z,100598.44
2023-07-14T10:26:05.621Z,100598.78
2023-07-14T10:29:17.384Z,100598.53
2023-07-14T10:32:26.410Z,100585.06
2023-07-14T10:35:33.076Z,100593.63
2023-07-14T10:38:52.165Z,100591.84
2023-07-14T10:41:56.334Z,100589.00
2023-07-14T10:44:59.960Z,100578.38
2023-07-14T10:48:12.566Z,100574.94
2023-07-14T10:51:41.851Z,100581.22
2023-07-14T10:55:14.303Z,100577.72
2023-07-14T10:58:29.489Z,100572.09
2023-07-14T11:01:42.393Z,100563.41
2023-07-14T11:05:11.625Z,100564.31
2023-07-14T11:08:14.948Z,100565.06
2023-07-14T11:11:38.706Z,100565.28
2023-07-14T11:15:01.073Z,100562.41
2023-07-14T11:18:36.718Z,100551.38
2023-07-14T11:22:16.025Z,100544.09
2023-07-14T11:26:02.666Z,100545.84
2023-07-14T11:29:17.230Z,100553.06
2023-07-14T11:32:25.170Z,100542.81
2023-07-14T11:35:50.909Z,100544.56
2023-07-14T11:39:02.092Z,100547.25
2023-07-14T11:42:15.741Z,100536.16
2023-07-14T11:45:22.712Z,100534.84
2023-07-14T11:48:44.898Z,100523.41
2023-07-14T11:51:53.776Z,100524.16
2023-07-14T11:55:32.729Z,100517.47
2023-07-14T11:58:35.823Z,100511.03
2023-07-14T12:01:46.892Z,100500.44
2023-07-14T12:05:28.884Z,100511.72
2023-07-14T12:08:43.157Z,100523.06
2023-07-14T12:11:54.718Z,100503.06
2023-07-14T12:14:57.469Z,100515.37
2023-07-14T12:18:38.172Z,100508.13
2023-07-14T12:21:47.170Z,100499.69
2023-07-14T12:24:52.120Z,100506.81
2023-07-14T12:27:55.702Z,100491.09
2023-07-14T12:31:02.146Z,100489.16
2023-07-14T12:34:07.723Z,100481.84
2023-07-14T12:37:17.071Z,100482.03
2023-07-14T12:40:24.228Z,100482.19
2023-07-14T12:43:35.452Z,100481.50
2023-07-14T12:46:40.018Z,100481.56
2023-07-14T12:49:48.119Z,100480.63
2023-07-14T12:52:51.916Z,100481.94
2023-07-14T12:55:55.063Z,100470.19
2023-07-14T12:59:00.611Z,100468.31
2023-07-14T13:02:04.370Z,100464.31
2023-07-14T13:05:14.979Z,100463.09
2023-07-14T13:08:24.669Z,100464.50
2023-07-14T13:11:40.380Z,100458.16
2023-07-14T13:15:02.532Z,100462.62
2023-07-14T13:18:15.840Z,100454.59
2023-07-14T13:21:48.700Z,100448.38
2023-07-14T13:25:04.628Z,100452.06
2023-07-14T13:28:33.930Z,100455.75
2023-07-14T13:31:44.273Z,100440.66
2023-07-14T13:34:52.088Z,100445.38
2023-07-14T13:38:06.953Z,100446.34
2023-07-14T13:41:18.597Z,100444.47
2023-07-14T13:44:38.301Z,100444.03
2023-07-14T13:47:51.222Z,100438.19
2023-07-14T13:50:54.504Z,100446.53
2023-07-14T13:53:58.310Z,100440.53
2023-07-14T13:57:00.906Z,100446.78
2023-07-14T14:00:05.068Z,100448.84
2023-07-14T14:03:12.075Z,100443.87
2023-07-14T14:06:15.539Z,100435.56
2023-07-14T14:09:22.160Z,100434.50
2023-07-14T14:12:25.196Z,100433.06
2023-07-14T14:15:34.152Z,100427.72
2023-07-14T14:18:37.439Z,100419.09
2023-07-14T14:21:40.171Z,100425.06
2023-07-14T14:24:43.315Z,100409.53
2023-07-14T14:27:47.618Z,100412.78
2023-07-14T14:30:56.939Z,100397.41
2023-07-14T14:34:00.204Z,100399.66
2023-07-14T14:37:03.185Z,100402.63
2023-07-14T14:40:06.383Z,100401.00
2023-07-14T14:43:30.742Z,100398.56
2023-07-14T14:46:34.230Z,100386.13
2023-07-14T14:49:37.612Z,100391.44
2023-07-14T14:52:40.162Z,100387.94
2023-07-14T14:55:44.804Z,100395.22
2023-07-14T14:58:47.758Z,100387.28
2023-07-14T15:01:50.991Z,100376.34
2023-07-14T15:04:53.841Z,100376.78
2023-07-14T15:07:57.533Z,100380.28
2023-07-14T15:11:00.458Z,100367.03
2023-07-14T15:14:09.265Z,100375.75
2023-07-14T15:17:24.109Z,100379.41
2023-07-14T15:20:28.560Z,100376.13
2023-07-14T15:23:31.289Z,100377.06
2023-07-14T15:26:36.938Z,100388.75
2023-07-14T15:29:39.904Z,100382.16
2023-07-14T15:32:43.429Z,100370.41
2023-07-14T15:35:57.189Z,100368.06
2023-07-14T15:39:03.491Z,100374.16
2023-07-14T15:42:12.662Z,100364.84
2023-07-14T15:45:22.453Z,100353.88
2023-07-14T15:48:40.987Z,100353.06
2023-07-14T15:51:47.125Z,100355.16
2023-07-14T15:54:49.885Z,100354.84
2023-07-14T15:57:53.185Z,100354.09
2023-07-14T16:00:57.927Z,100353.66
2023-07-14T16:04:02.493Z,100352.22
2023-07-14T16:07:05.907Z,100358.50
2023-07-14T16:10:16.560Z,100356.91
2023-07-14T16:13:19.294Z,100344.41
2023-07-14T16:16:22.790Z,100349.06
2023-07-14T16:19:25.732Z,100352.44
2023-07-14T16:22:28.800Z,100343.97
2023-07-14T16:25:32.596Z,100339.59
2023-07-14T16:28:35.599Z,100345.78
2023-07-14T16:31:39.552Z,100336.06
2023-07-14T16:34:42.709Z,100334.75
2023-07-14T16:37:49.969Z,100330.84
2023-07-14T16:40:53.018Z,100328.13
2023-07-14T16:43:57.546Z,100333.16
2023-07-14T16:47:03.937Z,100343.94
2023-07-14T16:50:11.388Z,100338.06
2023-07-14T16:53:19.662Z,100335.53
2023-07-14T16:56:22.394Z,100345.56
2023-07-14T16:59:25.530Z,100336.31
2023-07-14T17:02:28.548Z,100342.41
2023-07-14T17:05:34.055Z,100342.06
2023-07-14T17:08:36.956Z,100341.72
2023-07-14T17:11:40.498Z,100341.94
2023-07-14T17:14:43.512Z,100336.47
2023-07-14T17:17:47.554Z,100341.50
2023-07-14T17:20:52.097Z,100350.50
2023-07-14T17:23:57.793Z,100341.44
2023-07-14T17:27:00.951Z,100349.75
2023-07-14T17:30:16.466Z,100351.09
2023-07-14T17:33:19.361Z,100349.22
2023-07-14T17:36:25.318Z,100358.63
2023-07-14T17:39:44.415Z,100347.31
2023-07-14T17:42:50.722Z,100347.31
2023-07-14T17:45:53.613Z,100354.22
2023-07-14T17:49:00.792Z,100352.37
2023-07-14T17:52:04.777Z,100346.69
2023-07-14T17:55:19.279Z,100352.44
2023-07-14T17:58:26.357Z,100360.06
2023-07-14T18:01:29.855Z,100347.78
2023-07-14T18:04:33.559Z,100359.78
2023-07-14T18:07:36.279Z,100360.13
2023-07-14T18:10:39.423Z,100347.09
2023-07-14T18:13:44.334Z,100353.66
2023-07-14T18:16:47.661Z,100357.50
2023-07-14T18:19:50.546Z,100354.75
2023-07-14T18:22:55.777Z,100362.09
2023-07-14T18:25:59.403Z,100364.56
2023-07-14T18:29:02.442Z,100358.00
2023-07-14T18:32:10.460Z,100358.56
2023-07-14T18:35:25.462Z,100367.00
2023-07-14T18:38:31.231Z,100363.22
2023-07-14T18:41:34.793Z,100366.22
2023-07-14T18:44:37.800Z,100368.38
2023-07-14T18:47:41.082Z,100369.47
2023-07-14T18:50:43.992Z,100362.63
2023-07-14T18:53:48.224Z,100375.94
2023-07-14T18:56:52.341Z,100373.19
2023-07-14T18:59:55.289Z,100376.97
2023-07-14T19:02:59.333Z,100376.44
2023-07-14T19:06:05.305Z,100388.63
2023-07-14T19:09:17.197Z,100387.00
2023-07-14T19:12:23.435Z,100391.03
2023-07-14T19:15:26.149Z,100391.31
2023-07-14T19:18:29.272Z,100388.59
2023-07-14T19:21:33.039Z,100388.94
2023-07-14T19:24:38.494Z,100388.63
2023-07-14T19:27:41.862Z,100381.56
2023-07-14T19:30:45.530Z,100385.09
2023-07-14T19:33:49.782Z,100378.84
2023-07-14T19:36:53.132Z,100386.19
2023-07-14T19:39:56.699Z,100379.66
2023-07-14T19:42:59.910Z,100382.63
2023-07-14T19:46:02.710Z,100383.37
2023-07-14T19:49:05.847Z,100387.97
2023-07-14T19:52:10.814Z,100384.94
2023-07-14T19:55:27.609Z,100383.84
2023-07-14T19:58:31.282Z,100384.88
2023-07-14T20:01:34.380Z,100387.81
2023-07-14T20:04:37.826Z,100388.91
2023-07-14T20:07:40.683Z,100390.25
2023-07-14T20:10:45.238Z,100392.66
2023-07-14T20:13:49.197Z,100389.63
2023-07-14T20:16:52.185Z,100385.78
2023-07-14T20:19:54.890Z,100385.16
2023-07-14T20:22:59.035Z,100386.47
2023-07-14T20:26:02.041Z,100384.22
2023-07-14T20:29:05.136Z,100377.94
2023-07-14T20:32:13.197Z,100376.81
2023-07-14T20:35:22.589Z,100372.41
2023-07-14T20:38:26.151Z,100376.41
2023-07-14T20:41:31.497Z,100379.34
2023-07-14T20:44:34.322Z,100371.97
2023-07-14T20:47:42.574Z,100377.88
2023-07-14T20:50:46.488Z,100378.03
2023-07-14T20:53:49.739Z,100390.19
2023-07-14T20:56:52.434Z,100378.47
2023-07-14T20:59:55.788Z,100377.62
2023-07-14T21:02:58.473Z,100377.78
2023-07-14T21:06:02.922Z,100382.78
2023-07-14T21:09:05.872Z,100372.37
2023-07-14T21:12:17.111Z,100367.69
2023-07-14T21:15:19.730Z,100373.56
2023-07-14T21:18:30.733Z,100374.28
2023-07-14T21:21:36.405Z,100367.41
2023-07-14T21:24:40.277Z,100374.06
2023-07-14T21:27:43.153Z,100370.66
2023-07-14T21:30:47.845Z,100381.94
2023-07-14T21:33:50.728Z,100388.25
2023-07-14T21:36:53.950Z,100394.88
2023-07-14T21:39:57.461Z,100395.03
2023-07-14T21:43:00.847Z,100398.72
2023-07-14T21:46:04.274Z,100403.00
2023-07-14T21:49:16.146Z,100401.38
2023-07-14T21:52:22.743Z,100414.56
2023-07-14T21:55:25.859Z,100417.53
2023-07-14T21:58:33.739Z,100416.81
2023-07-14T22:01:39.636Z,100408.72
2023-07-14T22:04:43.071Z,100414.97
2023-07-14T22:07:45.983Z,100413.28
2023-07-14T22:10:52.425Z,100415.56
2023-07-14T22:13:55.020Z,100414.13
2023-07-14T22:16:58.336Z,100420.03
2023-07-14T22:20:00.949Z,100412.38
2023-07-14T22:23:04.933Z,100422.47
2023-07-14T22:26:17.022Z,100420.91
2023-07-14T22:29:19.960Z,100420.91
2023-07-14T22:32:24.450Z,100423.13
2023-07-14T22:35:27.490Z,100427.94
2023-07-14T22:38:33.981Z,100433.03
2023-07-14T22:41:40.482Z,100434.53
2023-07-14T22:44:43.204Z,100429.03
2023-07-14T22:47:47.204Z,100427.94
2023-07-14T22:50:55.047Z,100422.34
2023-07-14T22:53:59.592Z,100423.50
2023-07-14T22:57:03.686Z,100417.31
2023-07-14T23:00:11.053Z,100413.28
2023-07-14T23:03:30.005Z,100418.97
2023-07-14T23:06:33.134Z,100425.56
2023-07-14T23:09:36.403Z,100425.94
2023-07-14T23:12:40.023Z,100431.00
2023-07-14T23:15:43.094Z,100424.44
2023-07-14T23:18:46.129Z,100413.19
2023-07-14T23:21:49.308Z,100415.53
2023-07-14T23:24:52.375Z,100421.44
2023-07-14T23:27:55.067Z,100416.25
2023-07-14T23:30:58.348Z,100414.44
2023-07-14T23:34:01.849Z,100414.31
2023-07-14T23:37:05.316Z,100404.69
2023-07-14T23:40:10.406Z,100411.41
2023-07-14T23:43:22.935Z,100415.94
2023-07-14T23:46:26.635Z,100418.91
2023-07-14T23:49:30.073Z,100413.72
2023-07-14T23:52:33.120Z,100417.47
2023-07-14T23:55:36.204Z,100416.19
2023-07-14T23:58:39.410Z,100423.22
